createdAt,value
2022-09-23T00:01:54.621Z,8.28
2022-09-23T00:04:21.000Z,8.29
2022-09-23T00:06:47.370Z,8.16
2022-09-23T00:09:13.737Z,8.48
2022-09-23T00:11:40.099Z,7.91
2022-09-23T00:14:06.460Z,8.21
2022-09-23T00:16:32.873Z,8.16
2022-09-23T00:18:59.279Z,8.34
2022-09-23T00:21:25.649Z,8.05
2022-09-23T00:23:52.013Z,7.84
2022-09-23T00:26:18.378Z,7.89
2022-09-23T00:28:44.760Z,7.75
2022-09-23T00:31:11.185Z,7.91
2022-09-23T00:33:37.592Z,7.60
2022-09-23T00:36:03.967Z,7.63
2022-09-23T00:38:30.327Z,7.91
2022-09-23T00:40:56.710Z,7.63
2022-09-23T00:43:23.064Z,7.86
2022-09-23T00:45:49.475Z,7.57
2022-09-23T00:48:15.875Z,7.89
2022-09-23T00:50:42.233Z,7.65
2022-09-23T00:53:08.598Z,7.94
2022-09-23T00:55:34.966Z,7.81
2022-09-23T00:58:01.325Z,7.76
2022-09-23T01:00:27.684Z,7.33
2022-09-23T01:02:54.128Z,7.18
2022-09-23T01:05:20.506Z,7.05
2022-09-23T01:07:46.885Z,7.07
2022-09-23T01:10:13.247Z,7.29
2022-09-23T01:12:39.596Z,7.54
2022-09-23T01:15:05.980Z,7.22
2022-09-23T01:17:32.338Z,7.06
2022-09-23T01:19:58.702Z,7.26
2022-09-23T01:22:25.078Z,7.19
2022-09-23T01:24:51.449Z,7.18
2022-09-23T01:27:17.814Z,7.26
2022-09-23T01:29:44.190Z,6.99
2022-09-23T01:32:10.560Z,7.18
2022-09-23T01:34:36.915Z,7.31
2022-09-23T01:37:03.289Z,7.09
2022-09-23T01:39:29.653Z,7.17
2022-09-23T01:41:56.020Z,6.83
2022-09-23T01:44:22.387Z,6.83
2022-09-23T01:46:48.744Z,6.55
2022-09-23T01:49:15.127Z,6.74
2022-09-23T01:51:41.492Z,6.90
2022-09-23T01:54:07.848Z,6.81
2022-09-23T01:56:34.230Z,6.59
2022-09-23T01:59:00.588Z,6.75
2022-09-23T02:01:26.968Z,6.75
2022-09-23T02:03:53.340Z,6.77
2022-09-23T02:06:19.702Z,6.75
2022-09-23T02:08:46.064Z,6.77
2022-09-23T02:11:12.430Z,6.36
2022-09-23T02:13:38.798Z,6.61
2022-09-23T02:16:05.160Z,6.51
2022-09-23T02:18:31.526Z,6.58
2022-09-23T02:20:57.886Z,6.36
2022-09-23T02:23:24.245Z,6.48
2022-09-23T02:25:50.631Z,6.28
2022-09-23T02:28:16.993Z,6.18
2022-09-23T02:30:43.367Z,6.66
2022-09-23T02:33:09.731Z,6.37
2022-09-23T02:35:36.084Z,6.39
2022-09-23T02:38:02.451Z,6.36
2022-09-23T02:40:28.862Z,6.65
2022-09-23T02:42:55.245Z,6.22
2022-09-23T02:45:21.618Z,6.28
2022-09-23T02:47:47.978Z,6.32
2022-09-23T02:50:14.346Z,6.29
2022-09-23T02:52:40.711Z,5.90
2022-09-23T02:55:07.087Z,5.86
2022-09-23T02:57:33.449Z,6.19
2022-09-23T02:59:59.813Z,6.27
2022-09-23T03:02:26.237Z,5.96
2022-09-23T03:04:52.652Z,5.95
2022-09-23T03:07:19.003Z,6.09
2022-09-23T03:09:45.370Z,6.06
2022-09-23T03:12:11.732Z,5.97
2022-09-23T03:14:38.098Z,5.68
2022-09-23T03:17:04.451Z,6.04
2022-09-23T03:19:30.822Z,5.99
2022-09-23T03:21:57.177Z,5.88
2022-09-23T03:24:23.547Z,5.63
2022-09-23T03:26:49.905Z,5.94
2022-09-23T03:29:16.276Z,5.89
2022-09-23T03:31:42.831Z,5.72
2022-09-23T03:34:09.226Z,5.93
2022-09-23T03:36:35.590Z,5.59
2022-09-23T03:39:02.057Z,5.56
2022-09-23T03:41:28.469Z,5.58
2022-09-23T03:43:54.929Z,5.61
2022-09-23T03:46:21.294Z,5.58
2022-09-23T03:48:47.663Z,5.61
2022-09-23T03:51:14.031Z,5.64
2022-09-23T03:53:40.392Z,5.53
2022-09-23T03:56:06.766Z,5.52
2022-09-23T03:58:33.155Z,5.47
2022-09-23T04:00:59.584Z,5.45
2022-09-23T04:03:26.022Z,5.33
2022-09-23T04:05:52.401Z,5.11
2022-09-23T04:08:18.757Z,5.37
2022-09-23T04:10:46.856Z,5.41
2022-09-23T04:13:13.727Z,5.31
2022-09-23T04:15:40.124Z,5.51
2022-09-23T04:18:06.504Z,5.37
2022-09-23T04:20:32.874Z,5.28
2022-09-23T04:22:59.236Z,5.05
2022-09-23T04:25:25.612Z,5.00
2022-09-23T04:27:51.977Z,5.05
2022-09-23T04:30:18.343Z,4.82
2022-09-23T04:32:44.699Z,5.01
2022-09-23T04:35:11.162Z,5.38
2022-09-23T04:37:37.527Z,5.05
2022-09-23T04:40:04.002Z,5.22
2022-09-23T04:42:30.428Z,5.09
2022-09-23T04:44:56.805Z,5.00
2022-09-23T04:47:23.170Z,4.90
2022-09-23T04:49:49.538Z,4.98
2022-09-23T04:52:15.903Z,4.75
2022-09-23T04:54:42.267Z,4.96
2022-09-23T04:57:08.635Z,4.83
2022-09-23T04:59:34.997Z,4.73
2022-09-23T05:02:01.431Z,4.45
2022-09-23T05:04:27.847Z,4.63
2022-09-23T05:06:54.207Z,4.92
2022-09-23T05:09:20.578Z,4.65
2022-09-23T05:11:46.955Z,4.56
2022-09-23T05:14:13.312Z,4.54
2022-09-23T05:16:39.709Z,4.48
2022-09-23T05:19:06.111Z,4.69
2022-09-23T05:21:32.508Z,4.44
2022-09-23T05:23:58.971Z,4.76
2022-09-23T05:26:25.574Z,4.60
2022-09-23T05:28:52.070Z,4.42
2022-09-23T05:31:20.348Z,4.33
2022-09-23T05:33:47.128Z,4.71
2022-09-23T05:36:13.484Z,4.24
2022-09-23T05:38:39.848Z,4.18
2022-09-23T05:41:06.213Z,4.35
2022-09-23T05:43:32.684Z,4.52
2022-09-23T05:45:59.048Z,4.19
2022-09-23T05:48:25.414Z,4.63
2022-09-23T05:50:51.777Z,4.53
2022-09-23T05:53:18.155Z,4.41
2022-09-23T05:55:44.513Z,4.11
2022-09-23T05:58:10.871Z,4.50
2022-09-23T06:00:37.228Z,4.10
2022-09-23T06:03:03.612Z,4.17
2022-09-23T06:05:30.042Z,4.62
2022-09-23T06:07:56.416Z,4.37
2022-09-23T06:10:22.784Z,4.37
2022-09-23T06:12:49.159Z,4.38
2022-09-23T06:15:15.520Z,4.31
2022-09-23T06:17:41.889Z,4.27
2022-09-23T06:20:08.267Z,4.09
2022-09-23T06:22:38.038Z,4.31
2022-09-23T06:25:05.408Z,4.21
2022-09-23T06:27:31.781Z,4.06
2022-09-23T06:29:58.144Z,4.09
2022-09-23T06:32:24.500Z,4.20
2022-09-23T06:34:52.147Z,4.09
2022-09-23T06:37:20.622Z,4.06
2022-09-23T06:39:47.283Z,4.17
2022-09-23T06:42:13.662Z,3.91
2022-09-23T06:44:40.034Z,4.07
2022-09-23T06:47:06.388Z,3.93
2022-09-23T06:49:32.756Z,3.80
2022-09-23T06:51:59.132Z,3.82
2022-09-23T06:54:25.502Z,4.00
2022-09-23T06:56:51.860Z,3.68
2022-09-23T06:59:18.224Z,3.89
2022-09-23T07:01:44.699Z,3.69
2022-09-23T07:04:11.135Z,3.73
2022-09-23T07:06:37.479Z,3.95
2022-09-23T07:09:03.862Z,3.64
2022-09-23T07:11:30.228Z,3.95
2022-09-23T07:13:56.590Z,3.83
2022-09-23T07:16:23.012Z,3.73
2022-09-23T07:18:49.464Z,3.93
2022-09-23T07:21:16.035Z,3.77
2022-09-23T07:23:42.464Z,3.88
2022-09-23T07:26:08.836Z,3.85
2022-09-23T07:28:35.187Z,3.63
2022-09-23T07:31:01.606Z,3.95
2022-09-23T07:33:32.465Z,3.86
2022-09-23T07:35:59.277Z,3.80
2022-09-23T07:38:25.695Z,3.67
2022-09-23T07:40:52.111Z,3.69
2022-09-23T07:43:18.489Z,3.77
2022-09-23T07:45:44.856Z,3.81
2022-09-23T07:48:11.226Z,3.70
2022-09-23T07:50:37.581Z,3.68
2022-09-23T07:53:03.954Z,3.95
2022-09-23T07:55:30.327Z,3.97
2022-09-23T07:57:56.699Z,3.89
2022-09-23T08:00:23.106Z,4.02
2022-09-23T08:02:52.854Z,4.08
2022-09-23T08:05:19.524Z,4.05
2022-09-23T08:07:45.901Z,4.14
2022-09-23T08:10:12.268Z,4.25
2022-09-23T08:12:38.635Z,3.96
2022-09-23T08:15:05.039Z,4.53
2022-09-23T08:17:31.403Z,4.44
2022-09-23T08:19:57.766Z,4.74
2022-09-23T08:22:24.136Z,4.89
2022-09-23T08:24:52.417Z,4.95
2022-09-23T08:27:20.164Z,5.29
2022-09-23T08:29:46.626Z,5.97
2022-09-23T08:32:12.990Z,7.20
2022-09-23T08:34:39.357Z,7.92
2022-09-23T08:37:05.719Z,8.15
2022-09-23T08:39:32.087Z,8.80
2022-09-23T08:41:59.279Z,9.32
2022-09-23T08:44:25.763Z,10.05
2022-09-23T08:46:52.134Z,10.12
2022-09-23T08:49:18.510Z,10.58
2022-09-23T08:51:44.885Z,10.47
2022-09-23T08:54:11.269Z,12.11
2022-09-23T08:56:37.644Z,12.10
2022-09-23T08:59:04.011Z,11.96
2022-09-23T09:01:30.436Z,12.38
2022-09-23T09:03:56.850Z,12.79
2022-09-23T09:06:23.212Z,12.53
2022-09-23T09:08:49.576Z,12.74
2022-09-23T09:11:15.996Z,12.91
2022-09-23T09:13:42.374Z,12.80
2022-09-23T09:16:08.779Z,12.96
2022-09-23T09:18:35.167Z,13.26
2022-09-23T09:21:01.532Z,13.28
2022-09-23T09:23:27.896Z,13.54
2022-09-23T09:25:54.268Z,13.21
2022-09-23T09:28:20.646Z,13.44
2022-09-23T09:30:48.686Z,13.25
2022-09-23T09:33:15.200Z,12.67
2022-09-23T09:35:41.660Z,13.39
2022-09-23T09:38:08.067Z,13.45
2022-09-23T09:40:34.579Z,13.91
2022-09-23T09:43:01.072Z,13.30
2022-09-23T09:45:27.441Z,13.59
2022-09-23T09:47:53.813Z,13.77
2022-09-23T09:50:20.202Z,13.91
2022-09-23T09:52:46.528Z,13.90
2022-09-23T09:55:12.935Z,13.58
2022-09-23T09:57:39.315Z,13.85
2022-09-23T10:00:05.687Z,14.61
2022-09-23T10:02:32.055Z,13.20
2022-09-23T10:04:58.434Z,13.57
2022-09-23T10:07:24.822Z,13.43
2022-09-23T10:09:51.184Z,13.12
2022-09-23T10:12:17.586Z,13.63
2022-09-23T10:14:43.966Z,13.25
2022-09-23T10:17:10.331Z,13.34
2022-09-23T10:19:36.739Z,13.18
2022-09-23T10:22:03.100Z,12.90
2022-09-23T10:24:29.469Z,13.31
2022-09-23T10:26:55.850Z,13.06
2022-09-23T10:29:22.226Z,13.65
2022-09-23T10:31:48.606Z,13.13
2022-09-23T10:34:14.978Z,13.54
2022-09-23T10:36:44.557Z,13.24
2022-09-23T10:39:11.045Z,13.37
2022-09-23T10:41:37.449Z,13.26
2022-09-23T10:44:03.840Z,13.61
2022-09-23T10:46:30.259Z,13.31
2022-09-23T10:48:56.684Z,13.45
2022-09-23T10:51:26.096Z,13.66
2022-09-23T10:53:52.731Z,13.46
2022-09-23T10:56:19.187Z,13.57
2022-09-23T10:58:45.572Z,13.71
2022-09-23T11:01:12.017Z,14.11
2022-09-23T11:03:38.480Z,14.11
2022-09-23T11:06:04.857Z,14.72
2022-09-23T11:08:31.241Z,14.58
2022-09-23T11:10:57.623Z,14.43
2022-09-23T11:13:23.998Z,14.26
2022-09-23T11:15:50.373Z,17.18
2022-09-23T11:18:16.761Z,21.15
2022-09-23T11:20:43.138Z,18.14
2022-09-23T11:23:09.635Z,18.72
2022-09-23T11:25:36.093Z,20.79
2022-09-23T11:28:02.533Z,21.04
2022-09-23T11:30:28.949Z,18.78
2022-09-23T11:32:55.441Z,17.06
2022-09-23T11:35:21.858Z,16.45
2022-09-23T11:37:48.236Z,16.12
2022-09-23T11:40:14.701Z,16.86
2022-09-23T11:42:41.200Z,16.95
2022-09-23T11:45:07.589Z,16.95
2022-09-23T11:47:38.967Z,16.30
2022-09-23T11:50:06.040Z,16.79
2022-09-23T11:52:32.400Z,16.31
2022-09-23T11:54:58.871Z,16.11
2022-09-23T11:57:25.425Z,15.37
2022-09-23T11:59:51.815Z,15.53
2022-09-23T12:02:21.157Z,14.90
2022-09-23T12:04:58.193Z,14.91
2022-09-23T12:07:24.818Z,14.56
2022-09-23T12:09:58.875Z,14.39
2022-09-23T12:12:27.204Z,14.03
2022-09-23T12:14:53.720Z,13.53
2022-09-23T12:17:20.092Z,13.74
2022-09-23T12:19:46.467Z,13.76
2022-09-23T12:22:12.838Z,13.50
2022-09-23T12:24:39.232Z,13.24
2022-09-23T12:27:05.618Z,13.13
2022-09-23T12:29:32.122Z,13.25
2022-09-23T12:31:58.566Z,13.03
2022-09-23T12:34:24.927Z,12.68
2022-09-23T12:36:51.305Z,12.37
2022-09-23T12:39:17.674Z,11.69
2022-09-23T12:41:44.049Z,11.49
2022-09-23T12:44:10.469Z,11.08
2022-09-23T12:46:36.898Z,11.25
2022-09-23T12:49:03.284Z,10.53
2022-09-23T12:51:29.713Z,10.40
2022-09-23T12:53:56.073Z,9.51
2022-09-23T12:56:22.436Z,9.65
2022-09-23T12:58:48.805Z,9.90
2022-09-23T13:01:15.283Z,9.26
2022-09-23T13:03:41.818Z,9.42
2022-09-23T13:06:08.182Z,8.77
2022-09-23T13:08:34.540Z,8.57
2022-09-23T13:11:00.925Z,8.59
2022-09-23T13:13:27.298Z,8.82
2022-09-23T13:15:53.653Z,8.31
2022-09-23T13:18:20.018Z,8.79
2022-09-23T13:20:46.400Z,9.11
2022-09-23T13:23:12.778Z,9.64
2022-09-23T13:25:39.154Z,10.68
2022-09-23T13:28:05.520Z,11.05
2022-09-23T13:30:31.892Z,11.33
2022-09-23T13:32:58.284Z,11.26
2022-09-23T13:35:24.645Z,12.01
2022-09-23T13:37:51.031Z,12.19
2022-09-23T13:40:17.499Z,12.70
2022-09-23T13:42:43.947Z,13.61
2022-09-23T13:45:10.322Z,12.69
2022-09-23T13:47:36.690Z,13.24
2022-09-23T13:50:03.078Z,13.99
2022-09-23T13:52:29.473Z,14.04
2022-09-23T13:54:55.844Z,13.79
2022-09-23T13:57:22.236Z,14.77
2022-09-23T13:59:48.615Z,14.09
2022-09-23T14:02:15.016Z,14.89
2022-09-23T14:04:41.411Z,14.37
2022-09-23T14:07:07.783Z,13.89
2022-09-23T14:09:34.153Z,13.08
2022-09-23T14:12:00.542Z,13.79
2022-09-23T14:14:26.912Z,14.02
2022-09-23T14:16:53.350Z,13.80
2022-09-23T14:19:19.789Z,14.34
2022-09-23T14:21:46.149Z,13.92
2022-09-23T14:24:12.625Z,14.31
2022-09-23T14:26:39.002Z,14.13
2022-09-23T14:29:05.437Z,13.96
2022-09-23T14:31:31.912Z,13.91
2022-09-23T14:33:58.341Z,14.43
2022-09-23T14:36:24.726Z,14.20
2022-09-23T14:38:51.122Z,14.22
2022-09-23T14:41:17.490Z,14.69
2022-09-23T14:43:43.875Z,13.61
2022-09-23T14:46:10.315Z,14.05
2022-09-23T14:48:36.730Z,13.82
2022-09-23T14:51:03.116Z,14.10
2022-09-23T14:53:32.240Z,13.95
2022-09-23T14:55:58.605Z,13.43
2022-09-23T14:58:24.980Z,14.13
2022-09-23T15:00:51.368Z,14.02
2022-09-23T15:03:17.862Z,13.83
2022-09-23T15:05:44.248Z,13.96
2022-09-23T15:08:10.648Z,13.98
2022-09-23T15:10:37.041Z,14.14
2022-09-23T15:13:03.418Z,14.03
2022-09-23T15:15:29.803Z,13.23
2022-09-23T15:17:56.180Z,13.90
2022-09-23T15:20:22.566Z,12.68
2022-09-23T15:22:48.954Z,13.88
2022-09-23T15:25:15.326Z,13.51
2022-09-23T15:27:41.702Z,13.59
2022-09-23T15:30:12.548Z,13.78
2022-09-23T15:32:41.029Z,13.09
2022-09-23T15:35:07.410Z,13.51
2022-09-23T15:37:36.314Z,13.65
2022-09-23T15:40:02.914Z,13.63
2022-09-23T15:42:29.286Z,13.12
2022-09-23T15:44:55.658Z,13.17
2022-09-23T15:47:22.039Z,13.23
2022-09-23T15:49:48.420Z,13.19
2022-09-23T15:52:14.792Z,13.26
2022-09-23T15:54:41.153Z,13.06
2022-09-23T15:57:07.532Z,12.92
2022-09-23T15:59:33.908Z,12.80
2022-09-23T16:02:00.335Z,12.42
2022-09-23T16:04:26.727Z,12.90
2022-09-23T16:06:53.106Z,12.83
2022-09-23T16:09:19.466Z,13.04
2022-09-23T16:11:45.843Z,12.79
2022-09-23T16:14:12.201Z,12.84
2022-09-23T16:16:38.598Z,12.40
2022-09-23T16:19:05.053Z,12.62
2022-09-23T16:21:31.417Z,12.62
2022-09-23T16:23:57.786Z,12.48
2022-09-23T16:26:24.182Z,12.55
2022-09-23T16:28:50.550Z,12.31
2022-09-23T16:31:16.954Z,12.90
2022-09-23T16:33:43.362Z,12.79
2022-09-23T16:36:09.737Z,12.56
2022-09-23T16:38:36.113Z,13.06
2022-09-23T16:41:02.507Z,12.37
2022-09-23T16:43:28.937Z,12.42
2022-09-23T16:45:55.335Z,12.69
2022-09-23T16:48:21.750Z,12.62
2022-09-23T16:50:48.126Z,12.47
2022-09-23T16:53:14.481Z,12.16
2022-09-23T16:55:40.853Z,12.02
2022-09-23T16:58:07.230Z,12.17
2022-09-23T17:00:33.691Z,12.40
2022-09-23T17:03:00.138Z,11.97
2022-09-23T17:05:26.505Z,11.85
2022-09-23T17:07:52.871Z,11.88
2022-09-23T17:10:19.242Z,11.77
2022-09-23T17:12:45.604Z,11.98
2022-09-23T17:15:11.957Z,11.95
2022-09-23T17:17:38.316Z,11.95
2022-09-23T17:20:04.696Z,11.58
2022-09-23T17:22:31.052Z,11.66
2022-09-23T17:24:57.442Z,11.23
2022-09-23T17:27:23.819Z,11.63
2022-09-23T17:29:50.185Z,11.56
2022-09-23T17:32:16.558Z,11.69
2022-09-23T17:34:42.912Z,11.17
2022-09-23T17:37:09.272Z,11.07
2022-09-23T17:39:35.647Z,11.27
2022-09-23T17:42:02.024Z,10.98
2022-09-23T17:44:28.397Z,11.16
2022-09-23T17:46:54.773Z,10.65
2022-09-23T17:49:21.145Z,10.62
2022-09-23T17:51:47.527Z,11.32
2022-09-23T17:54:13.898Z,10.77
2022-09-23T17:56:40.259Z,10.78
2022-09-23T17:59:06.712Z,10.84
2022-09-23T18:01:33.148Z,10.42
2022-09-23T18:03:59.551Z,10.85
2022-09-23T18:06:25.921Z,10.62
2022-09-23T18:08:52.309Z,10.84
2022-09-23T18:11:18.702Z,10.10
2022-09-23T18:13:45.077Z,10.60
2022-09-23T18:16:11.477Z,10.31
2022-09-23T18:18:37.912Z,10.83
2022-09-23T18:21:04.290Z,10.41
2022-09-23T18:23:30.648Z,10.67
2022-09-23T18:25:57.028Z,10.68
2022-09-23T18:28:23.387Z,10.51
2022-09-23T18:30:49.760Z,10.38
2022-09-23T18:33:16.132Z,10.32
2022-09-23T18:35:42.502Z,10.15
2022-09-23T18:38:08.864Z,10.33
2022-09-23T18:40:35.263Z,10.78
2022-09-23T18:43:01.661Z,10.59
2022-09-23T18:45:28.053Z,10.50
2022-09-23T18:47:54.424Z,9.85
2022-09-23T18:50:20.807Z,10.60
2022-09-23T18:52:47.179Z,10.36
2022-09-23T18:55:13.552Z,10.50
2022-09-23T18:57:39.924Z,10.27
2022-09-23T19:00:06.297Z,10.31
2022-09-23T19:02:32.664Z,10.07
2022-09-23T19:04:59.026Z,9.96
2022-09-23T19:07:25.394Z,10.15
2022-09-23T19:09:51.770Z,10.21
2022-09-23T19:12:18.128Z,9.83
2022-09-23T19:14:44.500Z,10.25
2022-09-23T19:17:10.863Z,10.10
2022-09-23T19:19:37.225Z,10.11
2022-09-23T19:22:03.603Z,10.32
2022-09-23T19:24:30.104Z,9.96
2022-09-23T19:26:56.475Z,9.87
2022-09-23T19:29:22.850Z,9.99
2022-09-23T19:31:49.320Z,10.21
2022-09-23T19:34:15.718Z,9.65
2022-09-23T19:36:42.107Z,10.02
2022-09-23T19:39:08.496Z,9.97
2022-09-23T19:41:34.862Z,9.56
2022-09-23T19:44:01.291Z,9.75
2022-09-23T19:46:27.716Z,9.61
2022-09-23T19:48:54.147Z,9.86
2022-09-23T19:51:20.522Z,10.07
2022-09-23T19:53:46.884Z,10.26
2022-09-23T19:56:13.251Z,9.61
2022-09-23T19:58:39.639Z,10.04
2022-09-23T20:01:06.115Z,9.93
2022-09-23T20:03:32.525Z,9.81
2022-09-23T20:05:58.904Z,10.02
2022-09-23T20:08:25.374Z,10.35
2022-09-23T20:10:51.759Z,9.72
2022-09-23T20:13:18.128Z,10.09
2022-09-23T20:15:44.635Z,9.75
2022-09-23T20:18:11.057Z,9.15
2022-09-23T20:20:37.431Z,9.71
2022-09-23T20:23:03.779Z,9.63
2022-09-23T20:25:30.150Z,10.18
2022-09-23T20:27:56.543Z,9.82
2022-09-23T20:30:22.945Z,9.54
2022-09-23T20:32:49.311Z,9.68
2022-09-23T20:35:15.690Z,9.70
2022-09-23T20:37:42.045Z,9.71
2022-09-23T20:40:08.446Z,9.42
2022-09-23T20:42:34.874Z,9.21
2022-09-23T20:45:01.245Z,9.26
2022-09-23T20:47:27.672Z,9.44
2022-09-23T20:49:54.035Z,9.46
2022-09-23T20:52:20.393Z,9.56
2022-09-23T20:54:46.757Z,9.32
2022-09-23T20:57:13.201Z,9.41
2022-09-23T20:59:39.556Z,9.35
2022-09-23T21:02:05.997Z,9.61
2022-09-23T21:04:32.433Z,9.38
2022-09-23T21:06:58.806Z,9.49
2022-09-23T21:09:25.168Z,9.37
2022-09-23T21:11:51.536Z,9.29
2022-09-23T21:14:17.899Z,9.35
2022-09-23T21:16:44.390Z,9.33
2022-09-23T21:19:10.793Z,9.28
2022-09-23T21:21:37.167Z,9.60
2022-09-23T21:24:33.069Z,9.20
2022-09-23T21:26:49.889Z,9.03
2022-09-23T21:29:16.264Z,8.96
2022-09-23T21:31:42.728Z,9.08
2022-09-23T21:34:09.244Z,9.67
2022-09-23T21:36:35.723Z,9.17
2022-09-23T21:39:02.099Z,9.07
2022-09-23T21:41:28.464Z,8.87
2022-09-23T21:43:54.842Z,8.67
2022-09-23T21:46:21.310Z,9.31
2022-09-23T21:48:47.787Z,9.42
2022-09-23T21:51:14.170Z,9.18
2022-09-23T21:53:40.558Z,8.95
2022-09-23T21:56:06.940Z,9.16
2022-09-23T21:58:33.323Z,9.19
2022-09-23T22:00:59.751Z,9.09
2022-09-23T22:03:26.174Z,8.87
2022-09-23T22:05:52.548Z,8.86
2022-09-23T22:08:18.919Z,9.02
2022-09-23T22:10:45.294Z,8.98
2022-09-23T22:13:13.022Z,9.11
2022-09-23T22:15:39.596Z,9.20
2022-09-23T22:18:05.958Z,8.67
2022-09-23T22:20:32.335Z,8.81
2022-09-23T22:22:58.691Z,8.88
2022-09-23T22:25:25.046Z,8.55
2022-09-23T22:27:51.419Z,8.69
2022-09-23T22:30:17.789Z,8.65
2022-09-23T22:32:44.144Z,8.51
2022-09-23T22:35:10.507Z,8.46
2022-09-23T22:37:36.874Z,8.67
2022-09-23T22:40:03.229Z,8.70
2022-09-23T22:42:29.600Z,8.55
2022-09-23T22:44:55.960Z,8.80
2022-09-23T22:47:22.342Z,8.60
2022-09-23T22:49:48.704Z,8.72
2022-09-23T22:52:15.085Z,8.37
2022-09-23T22:54:41.445Z,8.24
2022-09-23T22:57:07.815Z,8.55
2022-09-23T22:59:34.194Z,8.44
2022-09-23T23:02:00.663Z,8.48
2022-09-23T23:04:27.098Z,8.25
2022-09-23T23:06:53.475Z,8.41
2022-09-23T23:09:19.841Z,8.59
2022-09-23T23:11:46.198Z,8.02
2022-09-23T23:14:12.569Z,8.11
2022-09-23T23:16:39.003Z,7.80
2022-09-23T23:19:05.399Z,8.34
2022-09-23T23:21:31.775Z,7.88
2022-09-23T23:23:58.146Z,8.22
2022-09-23T23:26:24.500Z,8.09
2022-09-23T23:28:50.861Z,7.98
2022-09-23T23:31:17.338Z,7.66
2022-09-23T23:33:43.738Z,7.71
2022-09-23T23:36:10.110Z,7.87
2022-09-23T23:38:36.490Z,7.65
2022-09-23T23:41:02.852Z,7.58
2022-09-23T23:43:29.205Z,7.41
2022-09-23T23:45:55.576Z,7.83
2022-09-23T23:48:21.938Z,7.76
2022-09-23T23:50:48.410Z,7.64
2022-09-23T23:53:14.775Z,7.90
2022-09-23T23:55:41.139Z,7.67
2022-09-23T23:58:07.510Z,7.48
